createdAt,value
2018-10-16T00:02:23.298Z,11.7
2018-10-16T00:07:25.481Z,11.7
2018-10-16T00:12:27.894Z,11.7
2018-10-16T00:17:30.139Z,11.6
2018-10-16T00:22:33.557Z,11.6
2018-10-16T00:27:34.763Z,11.5
2018-10-16T00:32:37.172Z,11.5
2018-10-16T00:37:39.305Z,11.5
2018-10-16T00:42:41.607Z,11.5
2018-10-16T00:47:44.032Z,11.5
2018-10-16T00:52:46.306Z,11.4
2018-10-16T00:57:48.528Z,11.4
2018-10-16T01:02:50.847Z,11.4
2018-10-16T01:07:53.096Z,11.3
2018-10-16T01:12:55.364Z,11.2
2018-10-16T01:17:57.635Z,11.2
2018-10-16T01:22:59.899Z,11.2
2018-10-16T01:28:02.202Z,11.2
2018-10-16T01:33:04.823Z,11.3
2018-10-16T01:38:08.051Z,11.3
2018-10-16T01:43:10.552Z,11.3
2018-10-16T01:48:11.437Z,11.3
2018-10-16T01:53:13.713Z,11.4
2018-10-16T01:58:16.014Z,11.5
2018-10-16T02:08:20.588Z,11.5
2018-10-16T02:13:22.918Z,11.8
2018-10-16T02:18:25.247Z,11.8
2018-10-16T02:23:27.529Z,11.9
2018-10-16T02:33:32.186Z,12.1
2018-10-16T02:38:34.412Z,12.2
2018-10-16T02:43:36.667Z,12.1
2018-10-16T02:48:40.246Z,12
2018-10-16T02:53:41.250Z,11.9
2018-10-16T02:58:43.526Z,11.7
2018-10-16T03:03:45.824Z,11.6
2018-10-16T03:08:48.072Z,11.5
2018-10-16T03:13:50.464Z,11.5
2018-10-16T03:18:52.651Z,11.5
2018-10-16T03:23:54.938Z,11.5
2018-10-16T03:28:57.283Z,11.5
2018-10-16T03:33:59.548Z,11.6
2018-10-16T03:39:01.857Z,11.7
2018-10-16T03:44:04.181Z,11.6
2018-10-16T03:49:06.517Z,11.5
2018-10-16T03:54:08.767Z,11.4
2018-10-16T03:59:11.104Z,11.3
2018-10-16T04:04:13.421Z,11.1
2018-10-16T04:09:15.775Z,11.1
2018-10-16T04:14:17.947Z,11
2018-10-16T04:19:20.355Z,11
2018-10-16T04:24:22.515Z,10.9
2018-10-16T04:29:24.919Z,10.8
2018-10-16T04:34:27.117Z,10.7
2018-10-16T04:39:29.513Z,10.7
2018-10-16T04:44:31.713Z,10.8
2018-10-16T04:49:34.045Z,10.7
2018-10-16T04:54:36.252Z,10.6
2018-10-16T04:59:38.597Z,10.6
2018-10-16T05:04:40.890Z,10.5
2018-10-16T05:09:43.293Z,10.4
2018-10-16T05:14:45.584Z,10.4
2018-10-16T05:19:47.844Z,10.4
2018-10-16T05:24:50.066Z,10.3
2018-10-16T05:29:52.466Z,10.3
2018-10-16T05:34:54.715Z,10.3
2018-10-16T05:39:56.895Z,10.3
2018-10-16T05:44:59.205Z,10.3
2018-10-16T05:50:01.589Z,10.3
2018-10-16T05:55:03.869Z,10.2
2018-10-16T06:00:06.063Z,10.3
2018-10-16T06:05:08.451Z,10.3
2018-10-16T06:10:10.835Z,10.3
2018-10-16T06:15:13.052Z,10.3
2018-10-16T06:20:15.412Z,10.4
2018-10-16T06:25:17.759Z,10.4
2018-10-16T06:30:20.058Z,10.6
2018-10-16T06:35:22.133Z,10.8
2018-10-16T06:40:24.561Z,11.2
2018-10-16T06:45:26.790Z,11.7
2018-10-16T06:50:29.009Z,11.8
2018-10-16T06:55:31.317Z,11.8
2018-10-16T07:00:33.615Z,11.7
2018-10-16T07:05:35.964Z,11.7
2018-10-16T07:10:38.191Z,11.6
2018-10-16T07:15:40.474Z,11.8
2018-10-16T07:20:42.835Z,12
2018-10-16T07:25:45.128Z,12.3
2018-10-16T07:30:47.457Z,12.5
2018-10-16T07:35:49.679Z,12.8
2018-10-16T07:40:52.043Z,13
2018-10-16T07:45:54.266Z,13.3
2018-10-16T07:50:56.584Z,13.5
2018-10-16T07:55:58.804Z,13.7
2018-10-16T08:01:01.152Z,13.9
2018-10-16T08:06:03.475Z,14.1
2018-10-16T08:11:05.870Z,14.4
2018-10-16T08:16:08.038Z,14.8
2018-10-16T08:21:10.417Z,14.9
2018-10-16T08:26:12.625Z,15
2018-10-16T08:31:14.976Z,15.1
2018-10-16T08:36:17.347Z,15.3
2018-10-16T08:41:19.517Z,15.5
2018-10-16T08:46:21.801Z,15.7
2018-10-16T08:51:24.196Z,16
2018-10-16T08:56:26.361Z,16.200001
2018-10-16T09:01:28.816Z,16.299999
2018-10-16T09:06:31.051Z,16.299999
2018-10-16T09:11:33.349Z,16.299999
2018-10-16T09:16:35.634Z,16.4
2018-10-16T09:21:37.926Z,16.5
2018-10-16T09:26:40.180Z,16.700001
2018-10-16T09:31:42.489Z,17.1
2018-10-16T09:36:44.759Z,17.799999
2018-10-16T09:41:47.005Z,18.5
2018-10-16T09:46:49.440Z,19
2018-10-16T09:51:51.614Z,19.4
2018-10-16T09:56:53.968Z,19.799999
2018-10-16T10:01:56.275Z,20.1
2018-10-16T10:06:58.609Z,20.299999
2018-10-16T10:12:00.875Z,20.5
2018-10-16T10:17:03.132Z,20.9
2018-10-16T10:22:05.516Z,21.200001
2018-10-16T10:27:07.648Z,21.4
2018-10-16T10:32:09.974Z,21.6
2018-10-16T10:37:12.358Z,21.700001
2018-10-16T10:42:15.745Z,21.6
2018-10-16T10:47:16.861Z,21.6
2018-10-16T10:52:19.215Z,21.700001
2018-10-16T10:57:21.486Z,21.799999
2018-10-16T11:02:23.753Z,22
2018-10-16T11:07:26.053Z,22.200001
2018-10-16T11:12:28.358Z,22.200001
2018-10-16T11:17:30.783Z,22.5
2018-10-16T11:22:32.993Z,23.6
2018-10-16T11:27:35.216Z,24.700001
2018-10-16T11:32:37.552Z,25.6
2018-10-16T11:37:39.860Z,26.299999
2018-10-16T11:42:42.279Z,27
2018-10-16T11:47:44.442Z,27.799999
2018-10-16T11:52:46.775Z,28
2018-10-16T11:57:48.990Z,28.200001
2018-10-16T12:02:51.455Z,28.700001
2018-10-16T12:07:53.754Z,29.1
2018-10-16T12:12:55.881Z,28.9
2018-10-16T12:17:58.196Z,28.799999
2018-10-16T12:23:00.495Z,28.5
2018-10-16T12:28:03.080Z,28.5
2018-10-16T12:33:05.187Z,28.299999
2018-10-16T12:38:07.315Z,28.299999
2018-10-16T12:43:13.946Z,28.1
2018-10-16T12:48:12.207Z,27.6
2018-10-16T12:53:14.372Z,27.4
2018-10-16T12:58:16.485Z,26.9
2018-10-16T13:03:18.781Z,26.799999
2018-10-16T13:08:21.215Z,26.5
2018-10-16T13:13:23.505Z,26.299999
2018-10-16T13:18:25.695Z,26.4
2018-10-16T13:23:28.009Z,26.200001
2018-10-16T13:28:30.339Z,26.200001
2018-10-16T13:33:32.544Z,26.5
2018-10-16T13:38:34.859Z,26.6
2018-10-16T13:43:37.174Z,26.700001
2018-10-16T13:48:39.499Z,26.5
2018-10-16T13:53:41.816Z,26.299999
2018-10-16T13:58:44.116Z,26.299999
2018-10-16T14:03:46.327Z,26
2018-10-16T14:08:48.731Z,25.9
2018-10-16T14:13:52.132Z,25.700001
2018-10-16T14:18:53.279Z,25.5
2018-10-16T14:23:55.472Z,25.299999
2018-10-16T14:28:58.224Z,25.200001
2018-10-16T14:34:00.154Z,25.200001
2018-10-16T14:39:03.617Z,25.1
2018-10-16T14:44:04.801Z,24.9
2018-10-16T14:49:07.023Z,24.700001
2018-10-16T14:54:09.340Z,24.5
2018-10-16T14:59:11.732Z,24.4
2018-10-16T15:04:13.971Z,24.200001
2018-10-16T15:09:16.248Z,24.1
2018-10-16T15:14:18.622Z,24
2018-10-16T15:19:20.857Z,23.9
2018-10-16T15:24:23.026Z,23.700001
2018-10-16T15:29:25.323Z,23.6
2018-10-16T15:34:27.687Z,23.5
2018-10-16T15:39:30.004Z,23.299999
2018-10-16T15:44:32.318Z,23.200001
2018-10-16T15:49:35.714Z,23.1
2018-10-16T15:54:36.891Z,23
2018-10-16T15:59:39.114Z,22.9
2018-10-16T16:04:41.352Z,22.799999
2018-10-16T16:09:43.755Z,22.6
2018-10-16T16:14:45.950Z,22.5
2018-10-16T16:19:48.265Z,22.4
2018-10-16T16:24:50.738Z,22.1
2018-10-16T16:29:52.898Z,21.799999
2018-10-16T16:34:55.424Z,21.5
2018-10-16T16:39:57.545Z,21.200001
2018-10-16T16:44:59.835Z,20.9
2018-10-16T16:50:02.368Z,20.6
2018-10-16T16:55:04.458Z,20.299999
2018-10-16T17:00:06.667Z,20
2018-10-16T17:05:10.286Z,19.700001
2018-10-16T17:10:11.307Z,19.6
2018-10-16T17:15:13.629Z,19.299999
2018-10-16T17:20:15.830Z,19
2018-10-16T17:25:18.337Z,18.700001
2018-10-16T17:30:20.538Z,18.5
2018-10-16T17:35:22.728Z,18.299999
2018-10-16T17:40:25.030Z,18
2018-10-16T17:45:27.309Z,17.799999
2018-10-16T17:50:29.600Z,17.700001
2018-10-16T17:55:31.950Z,17.5
2018-10-16T18:00:34.543Z,17.299999
2018-10-16T18:05:36.571Z,17.1
2018-10-16T18:10:38.794Z,17.1
2018-10-16T18:15:41.078Z,17
2018-10-16T18:20:43.502Z,16.799999
2018-10-16T18:25:45.696Z,16.700001
2018-10-16T18:30:48.002Z,16.5
2018-10-16T18:35:50.204Z,16.4
2018-10-16T18:40:53.641Z,16.299999
2018-10-16T18:45:54.828Z,16.4
2018-10-16T18:50:57.193Z,16.200001
2018-10-16T18:55:59.446Z,16.200001
2018-10-16T19:01:01.801Z,16.200001
2018-10-16T19:06:04.020Z,16.200001
2018-10-16T19:11:06.293Z,16.200001
2018-10-16T19:16:08.637Z,16.299999
2018-10-16T19:21:10.931Z,16.299999
2018-10-16T19:26:13.207Z,16.4
2018-10-16T19:31:15.470Z,16.5
2018-10-16T19:36:17.812Z,16.5
2018-10-16T19:41:20.129Z,16.5
2018-10-16T19:46:22.343Z,16.5
2018-10-16T19:51:24.638Z,16.4
2018-10-16T19:56:26.915Z,16.299999
2018-10-16T20:01:29.289Z,16.200001
2018-10-16T20:06:31.481Z,16.1
2018-10-16T20:11:33.795Z,15.9
2018-10-16T20:16:36.137Z,15.8
2018-10-16T20:21:38.542Z,15.7
2018-10-16T20:26:40.687Z,15.5
2018-10-16T20:31:42.986Z,15.4
2018-10-16T20:36:45.268Z,15.5
2018-10-16T20:41:49.114Z,15.6
2018-10-16T20:46:50.974Z,15.8
2018-10-16T20:51:52.191Z,16
2018-10-16T20:56:54.557Z,16.1
2018-10-16T21:01:56.771Z,16.1
2018-10-16T21:06:59.174Z,16
2018-10-16T21:12:01.336Z,15.8
2018-10-16T21:17:03.700Z,15.6
2018-10-16T21:22:05.939Z,15.5
2018-10-16T21:27:08.221Z,15.6
2018-10-16T21:32:10.509Z,15.8
2018-10-16T21:37:12.909Z,15.8
2018-10-16T21:42:15.130Z,15.8
2018-10-16T21:47:17.511Z,15.8
2018-10-16T21:52:19.923Z,15.8
2018-10-16T21:57:21.987Z,15.7
2018-10-16T22:02:24.327Z,15.6
2018-10-16T22:07:26.569Z,15.6
2018-10-16T22:12:28.901Z,15.6
2018-10-16T22:17:33.048Z,15.6
2018-10-16T22:22:33.514Z,15.6
2018-10-16T22:27:35.789Z,15.5
2018-10-16T22:32:38.034Z,15.3
2018-10-16T22:37:40.334Z,15.2
2018-10-16T22:42:42.630Z,15
2018-10-16T22:47:44.993Z,14.9
2018-10-16T22:52:47.310Z,14.7
2018-10-16T22:57:49.661Z,14.4
2018-10-16T23:02:51.835Z,14.2
2018-10-16T23:07:54.135Z,14.1
2018-10-16T23:12:56.414Z,14
2018-10-16T23:17:58.749Z,13.9
2018-10-16T23:23:01.092Z,13.9
2018-10-16T23:28:03.305Z,13.9
2018-10-16T23:33:05.625Z,13.9
2018-10-16T23:38:07.850Z,13.8
2018-10-16T23:43:10.385Z,13.7
2018-10-16T23:48:14.035Z,13.7
2018-10-16T23:53:14.916Z,13.9
2018-10-16T23:58:17.126Z,14
